createdAt,value
2023-04-26T00:00:21.753Z,9.50
2023-04-26T00:02:51.169Z,9.50
2023-04-26T00:05:19.704Z,9.50
2023-04-26T00:07:50.391Z,9.50
2023-04-26T00:10:18.637Z,9.50
2023-04-26T00:12:46.574Z,9.40
2023-04-26T00:15:14.763Z,9.40
2023-04-26T00:17:43.022Z,9.20
2023-04-26T00:20:13.700Z,8.80
2023-04-26T00:22:41.744Z,8.50
2023-04-26T00:25:11.223Z,8.70
2023-04-26T00:27:39.309Z,8.80
2023-04-26T00:30:09.149Z,9.00
2023-04-26T00:32:37.142Z,8.30
2023-04-26T00:35:06.304Z,8.20
2023-04-26T00:37:36.140Z,8.40
2023-04-26T00:40:04.346Z,8.70
2023-04-26T00:42:32.281Z,8.80
2023-04-26T00:45:00.260Z,8.90
2023-04-26T00:47:30.773Z,8.90
2023-04-26T00:49:59.220Z,8.90
2023-04-26T00:52:29.147Z,8.90
2023-04-26T00:54:59.267Z,8.70
2023-04-26T00:57:27.300Z,8.50
2023-04-26T00:59:55.233Z,8.70
2023-04-26T01:02:23.336Z,8.80
2023-04-26T01:04:51.757Z,8.90
2023-04-26T01:07:19.805Z,8.90
2023-04-26T01:09:49.505Z,8.90
2023-04-26T01:12:19.083Z,8.80
2023-04-26T01:14:47.910Z,8.80
2023-04-26T01:17:15.866Z,8.90
2023-04-26T01:19:48.848Z,8.90
2023-04-26T01:22:17.855Z,8.90
2023-04-26T01:24:51.074Z,8.90
2023-04-26T01:27:19.221Z,8.80
2023-04-26T01:29:47.658Z,8.80
2023-04-26T01:32:15.790Z,8.70
2023-04-26T01:34:43.749Z,8.60
2023-04-26T01:37:11.813Z,8.70
2023-04-26T01:39:39.753Z,8.60
2023-04-26T01:42:09.051Z,8.60
2023-04-26T01:44:37.043Z,8.60
2023-04-26T01:47:05.080Z,8.50
2023-04-26T01:49:33.314Z,8.50
2023-04-26T01:52:02.554Z,8.50
2023-04-26T01:54:30.709Z,8.60
2023-04-26T01:56:58.704Z,8.70
2023-04-26T01:59:28.017Z,8.70
2023-04-26T02:01:55.936Z,8.60
2023-04-26T02:04:24.239Z,8.50
2023-04-26T02:06:52.240Z,8.30
2023-04-26T02:09:20.165Z,8.40
2023-04-26T02:11:48.172Z,8.50
2023-04-26T02:14:16.213Z,8.50
2023-04-26T02:16:45.592Z,8.40
2023-04-26T02:19:13.544Z,8.40
2023-04-26T02:21:55.225Z,8.50
2023-04-26T02:24:23.270Z,8.50
2023-04-26T02:26:51.878Z,8.60
2023-04-26T02:29:24.615Z,8.70
2023-04-26T02:32:05.834Z,8.60
2023-04-26T02:34:33.889Z,8.50
2023-04-26T02:37:01.927Z,8.50
2023-04-26T02:39:29.852Z,8.40
2023-04-26T02:41:57.818Z,8.30
2023-04-26T02:44:25.838Z,8.30
2023-04-26T02:46:53.806Z,8.30
2023-04-26T02:49:23.108Z,8.30
2023-04-26T02:51:51.034Z,8.20
2023-04-26T02:54:18.998Z,8.20
2023-04-26T02:56:47.028Z,8.10
2023-04-26T02:59:15.001Z,8.10
2023-04-26T03:01:43.266Z,8.10
2023-04-26T03:04:12.176Z,8.10
2023-04-26T03:06:41.597Z,8.20
2023-04-26T03:09:09.614Z,8.30
2023-04-26T03:11:37.632Z,8.30
2023-04-26T03:14:05.621Z,8.30
2023-04-26T03:16:42.342Z,8.20
2023-04-26T03:19:10.755Z,8.00
2023-04-26T03:21:38.689Z,7.90
2023-04-26T03:24:08.629Z,8.00
2023-04-26T03:26:36.651Z,8.00
2023-04-26T03:29:06.811Z,8.00
2023-04-26T03:31:34.841Z,7.90
2023-04-26T03:34:02.809Z,7.90
2023-04-26T03:36:30.744Z,7.70
2023-04-26T03:38:58.721Z,7.70
2023-04-26T03:41:28.082Z,7.80
2023-04-26T03:43:56.020Z,8.00
2023-04-26T03:46:24.049Z,8.00
2023-04-26T03:48:52.198Z,8.00
2023-04-26T03:51:20.939Z,8.00
2023-04-26T03:53:48.943Z,8.00
2023-04-26T03:56:17.264Z,7.90
2023-04-26T03:58:47.407Z,7.90
2023-04-26T04:01:15.721Z,7.90
2023-04-26T04:03:44.005Z,7.90
2023-04-26T04:06:12.658Z,7.80
2023-04-26T04:08:40.635Z,7.80
2023-04-26T04:11:08.707Z,7.70
2023-04-26T04:13:36.661Z,7.70
2023-04-26T04:16:06.976Z,7.70
2023-04-26T04:18:35.280Z,7.70
2023-04-26T04:21:03.387Z,7.70
2023-04-26T04:23:31.880Z,7.70
2023-04-26T04:25:59.907Z,7.60
2023-04-26T04:28:27.902Z,7.60
2023-04-26T04:30:57.099Z,7.60
2023-04-26T04:33:28.670Z,7.60
2023-04-26T04:35:56.700Z,7.60
2023-04-26T04:38:24.799Z,7.60
2023-04-26T04:40:52.789Z,7.60
2023-04-26T04:43:21.534Z,7.60
2023-04-26T04:45:50.166Z,7.50
2023-04-26T04:48:20.569Z,7.50
2023-04-26T04:50:50.786Z,7.50
2023-04-26T04:53:18.901Z,7.50
2023-04-26T04:55:46.884Z,7.50
2023-04-26T04:58:15.052Z,7.50
2023-04-26T05:00:43.383Z,7.50
2023-04-26T05:03:11.584Z,7.40
2023-04-26T05:05:39.664Z,7.40
2023-04-26T05:08:09.081Z,7.50
2023-04-26T05:10:37.140Z,7.60
2023-04-26T05:13:05.694Z,7.60
2023-04-26T05:15:33.740Z,7.50
2023-04-26T05:18:02.187Z,7.60
2023-04-26T05:20:31.301Z,7.60
2023-04-26T05:22:59.247Z,7.50
2023-04-26T05:25:28.538Z,7.60
2023-04-26T05:27:56.606Z,7.50
2023-04-26T05:30:24.791Z,7.60
2023-04-26T05:32:52.809Z,7.60
2023-04-26T05:35:20.757Z,7.60
2023-04-26T05:37:48.769Z,7.60
2023-04-26T05:40:17.271Z,7.60
2023-04-26T05:42:47.040Z,7.70
2023-04-26T05:45:15.060Z,7.70
2023-04-26T05:47:43.108Z,7.60
2023-04-26T05:50:12.577Z,7.70
2023-04-26T05:52:40.569Z,7.70
2023-04-26T05:55:09.131Z,7.60
2023-04-26T05:57:37.164Z,7.70
2023-04-26T06:00:09.489Z,7.60
2023-04-26T06:02:37.571Z,7.70
2023-04-26T06:05:06.751Z,7.70
2023-04-26T06:07:35.157Z,7.80
2023-04-26T06:10:03.516Z,7.70
2023-04-26T06:12:31.591Z,7.80
2023-04-26T06:14:59.542Z,7.80
2023-04-26T06:17:28.983Z,7.70
2023-04-26T06:19:56.966Z,7.80
2023-04-26T06:22:25.013Z,7.80
2023-04-26T06:24:53.068Z,7.90
2023-04-26T06:27:21.181Z,7.90
2023-04-26T06:29:49.136Z,7.90
2023-04-26T06:32:17.214Z,8.00
2023-04-26T06:34:46.659Z,8.10
2023-04-26T06:37:14.681Z,8.10
2023-04-26T06:39:42.776Z,8.10
2023-04-26T06:42:11.545Z,8.20
2023-04-26T06:44:39.510Z,8.30
2023-04-26T06:47:09.474Z,8.40
2023-04-26T06:49:37.578Z,8.40
2023-04-26T06:52:09.090Z,8.50
2023-04-26T06:54:45.918Z,8.60
2023-04-26T06:57:22.016Z,8.70
2023-04-26T06:59:50.133Z,8.70
2023-04-26T07:02:18.236Z,8.80
2023-04-26T07:04:47.122Z,8.80
2023-04-26T07:07:17.201Z,8.90
2023-04-26T07:09:45.302Z,9.00
2023-04-26T07:12:13.684Z,9.10
2023-04-26T07:14:43.414Z,9.10
2023-04-26T07:17:11.562Z,9.20
2023-04-26T07:19:39.745Z,9.30
2023-04-26T07:22:07.702Z,9.40
2023-04-26T07:24:37.000Z,9.50
2023-04-26T07:27:05.405Z,9.50
2023-04-26T07:29:33.350Z,9.60
2023-04-26T07:32:01.334Z,9.70
2023-04-26T07:34:29.355Z,9.80
2023-04-26T07:36:57.654Z,9.90
2023-04-26T07:39:25.784Z,9.90
2023-04-26T07:41:55.077Z,10.00
2023-04-26T07:44:23.229Z,10.10
2023-04-26T07:46:51.254Z,10.20
2023-04-26T07:49:19.294Z,10.30
2023-04-26T07:51:47.303Z,10.40
2023-04-26T07:54:15.333Z,10.50
2023-04-26T07:56:43.350Z,10.50
2023-04-26T07:59:12.704Z,10.60
2023-04-26T08:01:40.701Z,10.70
2023-04-26T08:04:09.226Z,10.70
2023-04-26T08:06:38.901Z,10.80
2023-04-26T08:09:06.887Z,10.90
2023-04-26T08:11:35.031Z,10.90
2023-04-26T08:14:03.142Z,11.00
2023-04-26T08:16:32.473Z,11.10
2023-04-26T08:19:03.084Z,11.10
2023-04-26T08:21:31.820Z,11.20
2023-04-26T08:23:59.770Z,11.30
2023-04-26T08:26:27.689Z,11.40
2023-04-26T08:28:55.823Z,11.40
2023-04-26T08:31:23.799Z,11.50
2023-04-26T08:33:53.353Z,11.60
2023-04-26T08:36:21.685Z,11.70
2023-04-26T08:38:49.612Z,11.70
2023-04-26T08:41:23.603Z,11.80
2023-04-26T08:43:53.011Z,11.90
2023-04-26T08:46:22.033Z,12.00
2023-04-26T08:48:58.859Z,12.00
2023-04-26T08:51:27.627Z,12.10
2023-04-26T08:53:59.170Z,12.10
2023-04-26T08:56:27.742Z,12.20
2023-04-26T08:58:56.982Z,12.30
2023-04-26T09:01:27.104Z,12.30
2023-04-26T09:03:57.969Z,12.40
2023-04-26T09:06:28.285Z,12.60
2023-04-26T09:08:57.250Z,12.60
2023-04-26T09:11:25.261Z,12.70
2023-04-26T09:13:53.472Z,12.70
2023-04-26T09:16:21.816Z,12.80
2023-04-26T09:18:52.603Z,12.80
2023-04-26T09:21:22.335Z,12.90
2023-04-26T09:24:01.717Z,13.00
2023-04-26T09:26:29.695Z,13.10
2023-04-26T09:29:13.707Z,13.20
2023-04-26T09:31:44.858Z,13.30
2023-04-26T09:34:15.583Z,13.40
2023-04-26T09:36:52.179Z,13.40
2023-04-26T09:39:34.040Z,13.40
2023-04-26T09:42:03.519Z,13.50
2023-04-26T09:44:32.309Z,13.70
2023-04-26T09:47:05.406Z,13.70
2023-04-26T09:49:35.110Z,13.80
2023-04-26T09:52:07.983Z,13.80
2023-04-26T09:54:44.480Z,13.90
2023-04-26T09:57:13.015Z,13.90
2023-04-26T09:59:43.117Z,14.00
2023-04-26T10:02:16.240Z,14.00
2023-04-26T10:04:47.773Z,14.10
2023-04-26T10:07:18.731Z,14.20
2023-04-26T10:09:47.093Z,14.20
2023-04-26T10:12:16.644Z,14.30
2023-04-26T10:14:46.593Z,14.30
2023-04-26T10:17:15.275Z,14.40
2023-04-26T10:19:46.475Z,14.50
2023-04-26T10:22:21.512Z,14.60
2023-04-26T10:24:50.713Z,14.70
2023-04-26T10:27:38.881Z,14.80
2023-04-26T10:30:10.248Z,14.90
2023-04-26T10:33:17.436Z,14.90
2023-04-26T10:36:10.214Z,14.90
2023-04-26T10:38:44.143Z,14.90
2023-04-26T10:41:32.275Z,15.00
2023-04-26T10:44:02.023Z,15.00
2023-04-26T10:46:41.230Z,15.00
2023-04-26T10:49:17.143Z,15.00
2023-04-26T10:52:14.809Z,15.10
2023-04-26T10:54:57.802Z,15.10
2023-04-26T10:57:41.280Z,15.10
2023-04-26T11:00:33.777Z,15.10
2023-04-26T11:03:12.981Z,15.10
2023-04-26T11:05:53.248Z,15.20
2023-04-26T11:08:22.576Z,15.20
2023-04-26T11:11:00.033Z,15.20
2023-04-26T11:13:27.961Z,15.30
2023-04-26T11:16:00.904Z,15.30
2023-04-26T11:18:29.699Z,15.30
2023-04-26T11:20:57.895Z,15.30
2023-04-26T11:23:27.418Z,15.30
2023-04-26T11:25:58.909Z,15.40
2023-04-26T11:28:26.857Z,15.40
2023-04-26T11:30:55.850Z,15.40
2023-04-26T11:33:24.234Z,15.50
2023-04-26T11:35:52.856Z,15.50
2023-04-26T11:38:23.897Z,15.60
2023-04-26T11:40:57.201Z,15.60
2023-04-26T11:43:31.621Z,15.60
2023-04-26T11:46:01.448Z,15.70
2023-04-26T11:48:30.183Z,15.80
2023-04-26T11:50:58.737Z,15.80
2023-04-26T11:53:26.810Z,15.80
2023-04-26T11:55:56.174Z,15.90
2023-04-26T11:58:24.166Z,15.90
2023-04-26T12:00:58.872Z,15.90
2023-04-26T12:03:32.508Z,16.00
2023-04-26T12:06:01.130Z,16.00
2023-04-26T12:08:29.231Z,16.10
2023-04-26T12:11:02.929Z,16.10
2023-04-26T12:13:31.266Z,16.10
2023-04-26T12:15:59.307Z,16.20
2023-04-26T12:18:32.770Z,16.10
2023-04-26T12:21:01.850Z,16.20
2023-04-26T12:23:39.244Z,16.30
2023-04-26T12:26:11.295Z,16.50
2023-04-26T12:28:39.670Z,16.60
2023-04-26T12:31:08.274Z,16.60
2023-04-26T12:33:37.116Z,16.60
2023-04-26T12:36:09.488Z,16.60
2023-04-26T12:38:37.760Z,16.60
2023-04-26T12:41:06.556Z,16.60
2023-04-26T12:43:37.076Z,16.70
2023-04-26T12:46:05.489Z,16.70
2023-04-26T12:48:33.526Z,16.70
2023-04-26T12:51:01.664Z,16.80
2023-04-26T12:53:29.633Z,16.80
2023-04-26T12:55:57.634Z,16.90
2023-04-26T12:58:25.749Z,16.90
2023-04-26T13:00:55.075Z,16.90
2023-04-26T13:03:23.268Z,17.00
2023-04-26T13:05:51.759Z,17.00
2023-04-26T13:08:22.736Z,17.10
2023-04-26T13:10:51.256Z,17.10
2023-04-26T13:13:21.953Z,17.10
2023-04-26T13:15:52.112Z,17.10
2023-04-26T13:18:22.045Z,17.10
2023-04-26T13:20:50.063Z,17.10
2023-04-26T13:23:17.985Z,17.00
2023-04-26T13:25:45.919Z,17.00
2023-04-26T13:28:14.165Z,17.00
2023-04-26T13:30:42.447Z,16.90
2023-04-26T13:33:11.089Z,16.90
2023-04-26T13:35:40.483Z,16.80
2023-04-26T13:38:08.413Z,16.80
2023-04-26T13:40:38.068Z,16.90
2023-04-26T13:43:05.998Z,17.00
2023-04-26T13:45:36.813Z,17.10
2023-04-26T13:48:05.160Z,17.20
2023-04-26T13:50:33.183Z,17.30
2023-04-26T13:53:03.002Z,17.30
2023-04-26T13:55:30.976Z,17.30
2023-04-26T13:57:58.956Z,17.20
2023-04-26T14:00:27.207Z,17.20
2023-04-26T14:02:56.160Z,17.20
2023-04-26T14:05:24.636Z,17.20
2023-04-26T14:07:54.979Z,17.20
2023-04-26T14:10:24.603Z,17.30
2023-04-26T14:12:52.572Z,17.40
2023-04-26T14:15:20.553Z,17.50
2023-04-26T14:17:48.779Z,17.60
2023-04-26T14:20:17.097Z,17.70
2023-04-26T14:22:45.035Z,17.80
2023-04-26T14:25:13.011Z,18.00
2023-04-26T14:27:43.423Z,18.20
2023-04-26T14:30:11.834Z,18.50
2023-04-26T14:32:39.837Z,18.90
2023-04-26T14:35:08.407Z,19.40
2023-04-26T14:37:36.941Z,19.60
2023-04-26T14:40:06.436Z,20.10
2023-04-26T14:42:34.457Z,20.80
2023-04-26T14:45:03.768Z,21.40
2023-04-26T14:47:31.832Z,22.00
2023-04-26T14:49:59.951Z,22.20
2023-04-26T14:52:29.163Z,22.40
2023-04-26T14:54:57.320Z,22.40
2023-04-26T14:57:25.396Z,22.30
2023-04-26T14:59:53.347Z,22.60
2023-04-26T15:02:22.737Z,22.90
2023-04-26T15:04:51.079Z,23.30
2023-04-26T15:07:31.212Z,23.50
2023-04-26T15:09:59.753Z,23.60
2023-04-26T15:12:28.126Z,23.70
2023-04-26T15:14:56.240Z,23.40
2023-04-26T15:17:25.649Z,23.30
2023-04-26T15:19:53.651Z,23.20
2023-04-26T15:22:21.635Z,22.80
2023-04-26T15:24:50.894Z,22.60
2023-04-26T15:27:18.943Z,22.50
2023-04-26T15:29:46.951Z,22.50
2023-04-26T15:32:14.954Z,22.30
2023-04-26T15:34:45.283Z,22.10
2023-04-26T15:37:13.336Z,21.70
2023-04-26T15:39:41.383Z,21.50
2023-04-26T15:42:09.460Z,21.30
2023-04-26T15:44:37.387Z,20.90
2023-04-26T15:47:05.597Z,20.50
2023-04-26T15:49:33.584Z,20.20
2023-04-26T15:52:02.947Z,19.90
2023-04-26T15:54:30.891Z,19.60
2023-04-26T15:56:59.384Z,19.50
2023-04-26T15:59:27.436Z,19.30
2023-04-26T16:01:55.438Z,19.20
2023-04-26T16:04:23.667Z,19.00
2023-04-26T16:06:51.882Z,18.90
2023-04-26T16:09:25.268Z,18.70
2023-04-26T16:11:53.603Z,18.60
2023-04-26T16:14:25.488Z,18.50
2023-04-26T16:16:53.469Z,18.50
2023-04-26T16:19:22.047Z,18.40
2023-04-26T16:21:50.061Z,18.30
2023-04-26T16:24:18.025Z,18.30
2023-04-26T16:26:47.491Z,18.20
2023-04-26T16:29:15.490Z,18.20
2023-04-26T16:31:44.234Z,18.20
2023-04-26T16:34:12.335Z,18.10
2023-04-26T16:36:40.377Z,18.10
2023-04-26T16:39:08.735Z,18.00
2023-04-26T16:41:36.684Z,17.90
2023-04-26T16:44:05.998Z,17.90
2023-04-26T16:46:34.013Z,17.80
2023-04-26T16:49:02.156Z,17.70
2023-04-26T16:51:30.286Z,17.60
2023-04-26T16:53:58.227Z,17.50
2023-04-26T16:56:26.234Z,17.50
2023-04-26T16:58:54.253Z,17.40
2023-04-26T17:01:23.672Z,17.40
2023-04-26T17:03:52.297Z,17.30
2023-04-26T17:06:20.520Z,17.30
2023-04-26T17:08:48.570Z,17.20
2023-04-26T17:11:17.103Z,17.20
2023-04-26T17:13:45.596Z,17.10
2023-04-26T17:16:13.702Z,17.00
2023-04-26T17:18:43.076Z,16.90
2023-04-26T17:21:11.751Z,16.90
2023-04-26T17:23:39.710Z,16.80
2023-04-26T17:26:07.883Z,16.80
2023-04-26T17:28:37.698Z,16.80
2023-04-26T17:31:05.848Z,16.70
2023-04-26T17:33:33.869Z,16.70
2023-04-26T17:36:03.198Z,16.60
2023-04-26T17:38:31.369Z,16.60
2023-04-26T17:41:00.389Z,16.60
2023-04-26T17:43:28.397Z,16.50
2023-04-26T17:45:56.433Z,16.40
2023-04-26T17:48:24.545Z,16.40
2023-04-26T17:50:52.919Z,16.40
2023-04-26T17:53:22.644Z,16.30
2023-04-26T17:55:53.009Z,16.30
2023-04-26T17:58:21.314Z,16.30
2023-04-26T18:00:49.852Z,16.20
2023-04-26T18:03:18.078Z,16.10
2023-04-26T18:05:46.381Z,16.10
2023-04-26T18:08:14.332Z,16.10
2023-04-26T18:10:43.620Z,16.00
2023-04-26T18:13:12.174Z,16.00
2023-04-26T18:15:40.122Z,15.90
2023-04-26T18:18:08.248Z,15.90
2023-04-26T18:20:37.081Z,15.90
2023-04-26T18:23:05.068Z,15.90
2023-04-26T18:25:33.123Z,15.90
2023-04-26T18:28:02.434Z,15.90
2023-04-26T18:30:33.205Z,15.90
2023-04-26T18:33:01.245Z,15.80
2023-04-26T18:35:29.254Z,15.80
2023-04-26T18:37:57.236Z,15.70
2023-04-26T18:40:25.232Z,15.70
2023-04-26T18:42:53.319Z,15.70
2023-04-26T18:45:22.698Z,15.70
2023-04-26T18:47:52.008Z,15.60
2023-04-26T18:50:21.999Z,15.40
2023-04-26T18:52:49.950Z,15.30
2023-04-26T18:55:18.010Z,15.30
2023-04-26T18:57:46.126Z,15.30
2023-04-26T19:00:20.632Z,15.20
2023-04-26T19:02:56.655Z,15.20
2023-04-26T19:05:25.452Z,15.20
2023-04-26T19:07:53.807Z,15.10
2023-04-26T19:10:22.400Z,15.10
2023-04-26T19:12:50.392Z,15.10
2023-04-26T19:15:18.525Z,15.00
2023-04-26T19:17:46.755Z,14.90
2023-04-26T19:20:16.313Z,14.90
2023-04-26T19:22:45.312Z,14.80
2023-04-26T19:25:13.875Z,14.70
2023-04-26T19:27:42.333Z,14.60
2023-04-26T19:30:11.351Z,14.50
2023-04-26T19:32:39.377Z,14.60
2023-04-26T19:35:08.588Z,14.60
2023-04-26T19:37:38.090Z,14.50
2023-04-26T19:40:07.588Z,14.50
2023-04-26T19:42:35.559Z,14.40
2023-04-26T19:45:03.616Z,14.20
2023-04-26T19:47:32.160Z,14.10
2023-04-26T19:50:00.862Z,14.20
2023-04-26T19:52:28.837Z,14.20
2023-04-26T19:54:58.182Z,14.30
2023-04-26T19:57:26.131Z,14.20
2023-04-26T19:59:54.140Z,14.20
2023-04-26T20:02:24.275Z,14.10
2023-04-26T20:04:52.361Z,14.10
2023-04-26T20:07:20.369Z,14.10
2023-04-26T20:09:48.379Z,14.10
2023-04-26T20:12:17.830Z,14.10
2023-04-26T20:14:45.827Z,14.10
2023-04-26T20:17:13.914Z,14.10
2023-04-26T20:19:42.699Z,14.00
2023-04-26T20:22:11.164Z,14.00
2023-04-26T20:24:39.119Z,14.00
2023-04-26T20:27:07.180Z,14.00
2023-04-26T20:29:37.181Z,13.70
2023-04-26T20:32:05.589Z,13.70
2023-04-26T20:34:33.726Z,13.70
2023-04-26T20:37:01.721Z,13.50
2023-04-26T20:39:33.604Z,13.50
2023-04-26T20:42:02.389Z,13.60
2023-04-26T20:44:30.361Z,13.60
2023-04-26T20:46:59.775Z,13.60
2023-04-26T20:49:28.301Z,13.50
2023-04-26T20:51:56.254Z,13.50
2023-04-26T20:54:24.457Z,13.50
2023-04-26T20:56:52.531Z,13.40
2023-04-26T20:59:20.504Z,13.50
2023-04-26T21:01:48.504Z,13.40
2023-04-26T21:04:18.100Z,13.40
2023-04-26T21:06:46.354Z,13.50
2023-04-26T21:09:14.446Z,13.40
2023-04-26T21:11:42.522Z,13.30
2023-04-26T21:14:10.552Z,13.40
2023-04-26T21:16:38.551Z,13.30
2023-04-26T21:19:06.733Z,13.30
2023-04-26T21:21:36.419Z,13.30
2023-04-26T21:24:04.790Z,13.20
2023-04-26T21:26:32.821Z,13.10
2023-04-26T21:29:00.804Z,13.10
2023-04-26T21:31:28.827Z,13.10
2023-04-26T21:33:56.821Z,13.00
2023-04-26T21:36:24.777Z,13.10
2023-04-26T21:38:54.133Z,13.10
2023-04-26T21:41:23.396Z,13.20
2023-04-26T21:43:52.215Z,13.10
2023-04-26T21:46:20.340Z,13.10
2023-04-26T21:48:48.352Z,13.00
2023-04-26T21:51:16.319Z,12.90
2023-04-26T21:53:44.478Z,12.90
2023-04-26T21:56:14.711Z,12.80
2023-04-26T21:58:43.120Z,12.80
2023-04-26T22:01:12.540Z,12.80
2023-04-26T22:03:41.220Z,12.70
2023-04-26T22:06:11.019Z,12.70
2023-04-26T22:08:38.987Z,12.60
2023-04-26T22:11:07.121Z,12.60
2023-04-26T22:13:36.538Z,12.60
2023-04-26T22:16:04.793Z,12.60
2023-04-26T22:18:32.776Z,12.60
2023-04-26T22:21:01.179Z,12.50
2023-04-26T22:23:31.241Z,12.40
2023-04-26T22:26:00.764Z,12.40
2023-04-26T22:28:28.737Z,12.40
2023-04-26T22:30:58.056Z,12.40
2023-04-26T22:33:26.183Z,12.30
2023-04-26T22:35:57.618Z,12.30
2023-04-26T22:38:26.171Z,12.30
2023-04-26T22:40:54.129Z,12.20
2023-04-26T22:43:23.126Z,12.20
2023-04-26T22:45:51.200Z,12.20
2023-04-26T22:48:20.570Z,12.20
2023-04-26T22:50:50.059Z,12.10
2023-04-26T22:53:19.812Z,12.10
2023-04-26T22:55:47.894Z,12.00
2023-04-26T22:58:17.202Z,12.00
2023-04-26T23:00:45.396Z,12.00
2023-04-26T23:03:13.526Z,12.00
2023-04-26T23:05:43.141Z,11.90
2023-04-26T23:08:11.343Z,11.80
2023-04-26T23:10:39.908Z,11.80
2023-04-26T23:13:08.959Z,11.90
2023-04-26T23:15:37.015Z,11.80
2023-04-26T23:18:05.409Z,11.90
2023-04-26T23:20:33.428Z,11.90
2023-04-26T23:23:02.759Z,11.90
2023-04-26T23:25:30.760Z,11.80
2023-04-26T23:28:00.149Z,11.70
2023-04-26T23:30:28.196Z,11.70
2023-04-26T23:32:56.184Z,11.80
2023-04-26T23:35:24.200Z,11.70
2023-04-26T23:37:52.561Z,11.80
2023-04-26T23:40:21.970Z,11.80
2023-04-26T23:42:49.927Z,11.80
2023-04-26T23:45:19.336Z,11.80
2023-04-26T23:47:47.369Z,11.80
2023-04-26T23:50:15.566Z,11.80
2023-04-26T23:52:43.608Z,11.80
2023-04-26T23:55:12.038Z,11.90
2023-04-26T23:57:41.341Z,11.90
